Zapata, TX

23:01 CDT le 20 septembre 2014 (GMT -0500)
Zapata | Change Station
CLOSE
Current Station
Aéroport
Location: Zapata,
Altitude: 423 ft
Stations météo à proximité

Alt. 423 ft 26.97 °N, 99.25 °W | Updated 6 minutes ago

Ciel dégagé
Ciel dégagé
81 ° F
Paraît 86 ° F
N
6
Vent Variable Vent de Est

Aujourd'hui
Haut(e) -- | Bas -- ° F
--% Risque de précip.
Hier
Haut(e) -- | Bas -- ° F
Precip. -- pouce
7:24 AM 7:35 PM
Lune descendante, 9% visible
Pression 29.94 pouce
Visibilité 10.0 Miles terrestres
Nuages Nuages épars 1800 ft
Nuages épars 4600 ft
indice de chaleur 86 ° F
Point de rosée 74 ° F
Humidité 80%
Précipitations 0.00 pouce
Profondeur de la couche neigeuse Non disponible.
UV 0 sur 12
Pollen 10.40 sur 12
Qualité de l'air Non disponible.
Flu Activity Non disponible.
METAR KAPY 210355Z AUTO 10005KT 10SM SCT018 SCT046 27/23 A2994 RMK AO2 T02700232

More Conditions Fewer Conditions

Pression 29.94 pouce
Visibilité 10.0 Miles terrestres
Nuages Nuages épars 1800 ft
Nuages épars 4600 ft
indice de chaleur 86 ° F
Point de rosée 74 ° F
Humidité 80%
Précipitations 0.00 pouce
Profondeur de la couche neigeuse Non disponible.
UV 0 sur 12
Pollen 10.40 sur 12
Qualité de l'air Non disponible.
Flu Activity Non disponible.
METAR KAPY 210355Z AUTO 10005KT 10SM SCT018 SCT046 27/23 A2994 RMK AO2 T02700232

More Conditions Fewer Conditions

Nowcast | as of 10:15 PM CDT on September 20, 2014

Isolated showers will continue to drift southwestward across parts of Zapata...Starr...and Hidalgo counties late this evening. These showers will impact the Zapata and El Sauz communities...as well as motorists traveling on Highway 83 between Rio Grande City and McAllen. Rainfall amounts will be light...generally averaging under a quarter inch in an hours time.

×

10-Day Weather Forecast

Almanac

Astronomie

Sep. 20, 2014 Lever Coucher
Temps réel 07:24 CDT 19:35 CDT
Crépuscule civil 07:01 CDT 19:58 CDT
Crépuscule nautique 06:34 CDT 20:25 CDT
Crépuscule astronomique 06:07 CDT 20:53 CDT
Lune 04:19 CDT (9/20) 17:27 CDT (9/20)
Durée de lumière visible 12h 57m
Longueur du jour
12h 11m
Tomorrow will be 1m 35s shorter.
Lune descendante, 9% of the Moon is Illuminated
Sep 21
Lune descendante
Sep 24
Nouveau
Oct 1
Premier quartier
Oct 8
Pleine lune
Oct 15
Dernier quartier

Extrêmes aujourd'hui

State Highs State Lows

Community

WunderPhotos

Upload Photos

1,755,084 Photos téléchargées !

Nearby

Épaisseur de neige

Station Depth Altitude
Pas de nouvelles chutes de neige

Activité sismique

Ville Distance Mag. Time & Date
No recent earthquake activity has been reported nearby.
Minimum magnitude displayed is 2.5.

Températures des eaux côtières

Lieu Température
Aucun rapport de station

Stations météo à proximité